createdAt,value
2017-09-05T00:00:35.533Z,12.20
2017-09-05T00:03:10.192Z,12.20
2017-09-05T00:05:38.144Z,12.10
2017-09-05T00:08:06.572Z,12.10
2017-09-05T00:10:35.615Z,12.00
2017-09-05T00:13:14.803Z,12.00
2017-09-05T00:15:57.194Z,12.00
2017-09-05T00:18:42.221Z,12.00
2017-09-05T00:21:10.209Z,12.00
2017-09-05T00:23:37.715Z,12.00
2017-09-05T00:26:06.110Z,11.90
2017-09-05T00:28:34.140Z,11.80
2017-09-05T00:31:01.672Z,11.80
2017-09-05T00:33:32.707Z,11.80
2017-09-05T00:36:00.251Z,11.80
2017-09-05T00:38:27.796Z,11.80
2017-09-05T00:40:55.295Z,11.80
2017-09-05T00:43:23.647Z,11.70
2017-09-05T00:45:51.241Z,11.70
2017-09-05T00:48:19.117Z,11.70
2017-09-05T00:50:46.623Z,11.70
2017-09-05T00:53:14.179Z,11.60
2017-09-05T00:55:41.759Z,11.50
2017-09-05T00:58:10.051Z,11.40
2017-09-05T01:00:37.571Z,11.40
2017-09-05T01:03:05.553Z,11.40
2017-09-05T01:05:33.107Z,11.40
2017-09-05T01:08:00.622Z,11.40
2017-09-05T01:10:29.344Z,11.40
2017-09-05T01:12:56.851Z,11.30
2017-09-05T01:15:24.351Z,11.30
2017-09-05T01:17:52.563Z,11.30
2017-09-05T01:20:20.874Z,11.30
2017-09-05T01:22:49.203Z,11.30
2017-09-05T01:25:17.471Z,11.30
2017-09-05T01:27:45.772Z,11.30
2017-09-05T01:30:14.063Z,11.30
2017-09-05T01:32:41.603Z,11.20
2017-09-05T01:35:12.415Z,11.30
2017-09-05T01:37:40.683Z,11.20
2017-09-05T01:40:09.954Z,11.20
2017-09-05T01:42:37.487Z,11.10
2017-09-05T01:45:05.907Z,11.10
2017-09-05T01:47:33.464Z,11.10
2017-09-05T01:50:00.975Z,11.10
2017-09-05T01:52:28.563Z,11.20
2017-09-05T01:54:56.076Z,11.30
2017-09-05T01:57:23.647Z,11.20
2017-09-05T01:59:51.193Z,11.20
2017-09-05T02:02:19.055Z,11.20
2017-09-05T02:04:50.853Z,11.20
2017-09-05T02:07:20.119Z,11.20
2017-09-05T02:09:47.644Z,11.10
2017-09-05T02:12:15.160Z,11.10
2017-09-05T02:14:42.715Z,11.10
2017-09-05T02:17:10.797Z,11.10
2017-09-05T02:19:38.320Z,11.10
2017-09-05T02:22:05.871Z,11.10
2017-09-05T02:24:34.396Z,11.00
2017-09-05T02:27:01.953Z,11.10
2017-09-05T02:29:29.508Z,11.10
2017-09-05T02:31:57.800Z,11.10
2017-09-05T02:34:25.720Z,11.10
2017-09-05T02:36:53.234Z,11.10
2017-09-05T02:39:20.796Z,11.10
2017-09-05T02:41:49.092Z,10.90
2017-09-05T02:44:16.695Z,10.90
2017-09-05T02:46:44.244Z,10.80
2017-09-05T02:49:11.752Z,10.80
2017-09-05T02:51:39.323Z,10.80
2017-09-05T02:54:06.840Z,10.70
2017-09-05T02:56:35.011Z,10.80
2017-09-05T02:59:02.524Z,10.70
2017-09-05T03:01:30.548Z,10.70
2017-09-05T03:03:58.119Z,10.70
2017-09-05T03:06:25.671Z,10.80
2017-09-05T03:08:53.196Z,10.90
2017-09-05T03:11:20.702Z,10.90
2017-09-05T03:13:48.203Z,10.90
2017-09-05T03:16:15.784Z,10.80
2017-09-05T03:18:43.828Z,10.80
2017-09-05T03:21:14.579Z,10.70
2017-09-05T03:23:42.101Z,10.70
2017-09-05T03:26:09.644Z,10.60
2017-09-05T03:28:37.246Z,10.60
2017-09-05T03:31:04.780Z,10.50
2017-09-05T03:33:32.340Z,10.50
2017-09-05T03:36:03.073Z,10.50
2017-09-05T03:38:30.623Z,10.50
2017-09-05T03:40:58.216Z,10.50
2017-09-05T03:43:25.755Z,10.50
2017-09-05T03:45:53.313Z,10.50
2017-09-05T03:48:20.828Z,10.50
2017-09-05T03:50:48.335Z,10.40
2017-09-05T03:53:15.872Z,10.40
2017-09-05T03:55:43.430Z,10.40
2017-09-05T03:58:11.583Z,10.30
2017-09-05T04:00:39.116Z,10.40
2017-09-05T04:03:06.621Z,10.30
2017-09-05T04:05:34.127Z,10.30
2017-09-05T04:08:01.707Z,10.30
2017-09-05T04:10:29.490Z,10.30
2017-09-05T04:12:57.068Z,10.30
2017-09-05T04:15:24.844Z,10.40
2017-09-05T04:17:53.232Z,10.40
2017-09-05T04:20:20.775Z,10.40
2017-09-05T04:22:48.286Z,10.40
2017-09-05T04:25:15.816Z,10.40
2017-09-05T04:27:44.316Z,10.30
2017-09-05T04:30:11.899Z,10.30
2017-09-05T04:32:39.533Z,10.30
2017-09-05T04:35:07.808Z,10.30
2017-09-05T04:37:39.926Z,10.20
2017-09-05T04:40:08.379Z,10.30
2017-09-05T04:42:35.937Z,10.30
2017-09-05T04:45:04.566Z,10.30
2017-09-05T04:47:32.468Z,10.30
2017-09-05T04:49:59.994Z,10.30
2017-09-05T04:52:27.524Z,10.30
2017-09-05T04:54:56.684Z,10.30
2017-09-05T04:57:24.256Z,10.30
2017-09-05T04:59:51.799Z,10.30
2017-09-05T05:02:20.111Z,10.30
2017-09-05T05:04:47.639Z,10.30
2017-09-05T05:07:15.221Z,10.30
2017-09-05T05:09:42.759Z,10.30
2017-09-05T05:12:10.280Z,10.30
2017-09-05T05:14:37.824Z,10.30
2017-09-05T05:17:05.393Z,10.30
2017-09-05T05:19:33.064Z,10.40
2017-09-05T05:22:01.450Z,10.40
2017-09-05T05:24:29.011Z,10.50
2017-09-05T05:26:56.558Z,10.70
2017-09-05T05:29:24.528Z,10.80
2017-09-05T05:31:52.044Z,10.90
2017-09-05T05:34:20.378Z,11.10
2017-09-05T05:36:47.927Z,11.40
2017-09-05T05:39:15.430Z,11.60
2017-09-05T05:41:43.025Z,11.70
2017-09-05T05:44:10.527Z,12.00
2017-09-05T05:46:38.575Z,12.20
2017-09-05T05:49:06.125Z,12.40
2017-09-05T05:51:34.316Z,12.70
2017-09-05T05:54:05.083Z,12.70
2017-09-05T05:56:32.593Z,12.80
2017-09-05T05:59:00.124Z,12.80
2017-09-05T06:01:27.656Z,13.10
2017-09-05T06:03:55.191Z,13.30
2017-09-05T06:06:22.696Z,13.60
2017-09-05T06:08:50.201Z,13.90
2017-09-05T06:11:18.291Z,14.20
2017-09-05T06:13:45.810Z,14.40
2017-09-05T06:16:13.373Z,14.30
2017-09-05T06:18:40.891Z,14.40
2017-09-05T06:21:08.397Z,14.70
2017-09-05T06:23:43.436Z,14.50
2017-09-05T06:26:10.956Z,14.50
2017-09-05T06:28:39.427Z,14.50
2017-09-05T06:31:06.972Z,14.60
2017-09-05T06:33:34.481Z,14.50
2017-09-05T06:36:02.727Z,14.40
2017-09-05T06:38:30.231Z,14.50
2017-09-05T06:40:57.816Z,14.90
2017-09-05T06:43:25.347Z,14.80
2017-09-05T06:45:52.915Z,14.60
2017-09-05T06:48:20.472Z,14.60
2017-09-05T06:50:48.033Z,14.30
2017-09-05T06:53:18.031Z,14.20
2017-09-05T06:55:48.961Z,14.20
2017-09-05T06:58:16.691Z,14.40
2017-09-05T07:00:48.440Z,14.60
2017-09-05T07:03:15.959Z,15.20
2017-09-05T07:05:43.463Z,15.50
2017-09-05T07:08:11.435Z,15.80
2017-09-05T07:10:39.511Z,15.80
2017-09-05T07:13:07.067Z,15.80
2017-09-05T07:15:34.579Z,15.90
2017-09-05T07:18:02.121Z,16.30
2017-09-05T07:20:30.424Z,18.10
2017-09-05T07:22:57.973Z,18.50
2017-09-05T07:25:32.855Z,18.20
2017-09-05T07:28:01.302Z,17.90
2017-09-05T07:30:28.815Z,18.10
2017-09-05T07:32:56.396Z,18.00
2017-09-05T07:35:23.976Z,17.90
2017-09-05T07:37:52.253Z,18.20
2017-09-05T07:40:20.344Z,18.20
2017-09-05T07:42:47.856Z,17.90
2017-09-05T07:45:15.399Z,17.70
2017-09-05T07:47:42.907Z,17.90
2017-09-05T07:50:10.489Z,17.60
2017-09-05T07:52:38.043Z,17.40
2017-09-05T07:55:05.547Z,17.80
2017-09-05T07:57:34.015Z,18.50
2017-09-05T08:00:01.519Z,18.80
2017-09-05T08:02:29.036Z,18.80
2017-09-05T08:04:57.267Z,19.00
2017-09-05T08:07:24.809Z,19.10
2017-09-05T08:09:52.934Z,19.70
2017-09-05T08:12:20.499Z,20.40
2017-09-05T08:14:48.025Z,21.40
2017-09-05T08:17:15.554Z,22.10
2017-09-05T08:19:43.843Z,21.70
2017-09-05T08:22:13.103Z,21.50
2017-09-05T08:24:40.615Z,21.50
2017-09-05T08:27:08.157Z,21.50
2017-09-05T08:29:35.773Z,21.90
2017-09-05T08:32:03.716Z,22.50
2017-09-05T08:34:31.302Z,23.10
2017-09-05T08:36:58.947Z,23.60
2017-09-05T08:39:26.471Z,25.30
2017-09-05T08:41:54.043Z,27.10
2017-09-05T08:44:21.550Z,27.90
2017-09-05T08:46:49.075Z,27.20
2017-09-05T08:49:17.757Z,26.90
2017-09-05T08:51:45.284Z,27.30
2017-09-05T08:54:12.813Z,27.40
2017-09-05T08:56:40.336Z,27.30
2017-09-05T08:59:07.877Z,26.60
2017-09-05T09:01:35.554Z,25.90
2017-09-05T09:04:04.000Z,25.30
2017-09-05T09:06:31.528Z,24.80
2017-09-05T09:08:59.265Z,24.50
2017-09-05T09:11:31.360Z,23.80
2017-09-05T09:13:58.871Z,22.80
2017-09-05T09:16:27.205Z,21.70
2017-09-05T09:18:55.683Z,21.70
2017-09-05T09:21:23.673Z,20.90
2017-09-05T09:23:51.178Z,21.30
2017-09-05T09:26:19.459Z,22.30
2017-09-05T09:28:47.467Z,22.30
2017-09-05T09:31:15.021Z,22.30
2017-09-05T09:33:43.401Z,22.10
2017-09-05T09:36:10.903Z,22.10
2017-09-05T09:38:38.429Z,21.90
2017-09-05T09:41:05.956Z,21.50
2017-09-05T09:43:33.452Z,21.80
2017-09-05T09:46:01.655Z,23.00
2017-09-05T09:48:29.215Z,23.70
2017-09-05T09:50:57.887Z,24.30
2017-09-05T09:53:26.312Z,24.70
2017-09-05T09:55:53.843Z,25.10
2017-09-05T09:58:21.352Z,25.10
2017-09-05T10:00:49.329Z,24.30
2017-09-05T10:03:16.832Z,24.80
2017-09-05T10:05:44.390Z,25.40
2017-09-05T10:08:11.967Z,25.70
2017-09-05T10:10:40.105Z,26.10
2017-09-05T10:13:08.524Z,26.50
2017-09-05T10:15:36.024Z,27.10
2017-09-05T10:18:03.619Z,27.70
2017-09-05T10:20:31.139Z,29.10
2017-09-05T10:22:59.951Z,29.60
2017-09-05T10:25:27.464Z,29.90
2017-09-05T10:27:54.972Z,29.90
2017-09-05T10:30:22.480Z,29.50
2017-09-05T10:32:51.446Z,28.80
2017-09-05T10:35:18.960Z,28.70
2017-09-05T10:37:46.502Z,28.90
2017-09-05T10:40:14.023Z,28.90
2017-09-05T10:42:41.531Z,28.80
2017-09-05T10:45:09.056Z,28.80
2017-09-05T10:47:36.624Z,28.40
2017-09-05T10:50:04.134Z,27.50
2017-09-05T10:52:33.067Z,27.10
2017-09-05T10:55:01.119Z,27.10
2017-09-05T10:57:28.649Z,27.10
2017-09-05T10:59:56.636Z,26.90
2017-09-05T11:02:24.154Z,26.70
2017-09-05T11:04:52.035Z,26.70
2017-09-05T11:07:19.575Z,26.60
2017-09-05T11:09:47.111Z,26.40
2017-09-05T11:12:14.641Z,25.90
2017-09-05T11:14:46.081Z,25.90
2017-09-05T11:17:13.619Z,26.00
2017-09-05T11:19:41.183Z,25.90
2017-09-05T11:22:08.695Z,25.90
2017-09-05T11:24:36.200Z,26.00
2017-09-05T11:27:03.746Z,25.90
2017-09-05T11:29:31.270Z,25.80
2017-09-05T11:31:58.796Z,25.70
2017-09-05T11:34:26.373Z,25.40
2017-09-05T11:36:55.469Z,25.50
2017-09-05T11:39:23.016Z,25.50
2017-09-05T11:41:50.568Z,25.30
2017-09-05T11:44:22.026Z,25.30
2017-09-05T11:46:49.586Z,25.50
2017-09-05T11:49:17.089Z,25.80
2017-09-05T11:51:44.628Z,26.10
2017-09-05T11:54:12.180Z,26.50
2017-09-05T11:56:39.712Z,27.10
2017-09-05T11:59:10.774Z,27.50
2017-09-05T12:01:40.056Z,27.80
2017-09-05T12:04:07.600Z,27.80
2017-09-05T12:06:35.244Z,28.00
2017-09-05T12:09:03.783Z,28.30
2017-09-05T12:11:32.273Z,28.40
2017-09-05T12:13:59.787Z,28.80
2017-09-05T12:16:27.324Z,28.90
2017-09-05T12:18:54.859Z,30.90
2017-09-05T12:21:22.772Z,33.70
2017-09-05T12:23:51.185Z,34.90
2017-09-05T12:26:18.712Z,36.30
2017-09-05T12:28:46.241Z,35.70
2017-09-05T12:31:13.760Z,33.00
2017-09-05T12:33:41.671Z,31.70
2017-09-05T12:36:09.171Z,30.60
2017-09-05T12:38:36.686Z,29.50
2017-09-05T12:41:05.236Z,29.10
2017-09-05T12:43:32.779Z,29.30
2017-09-05T12:46:00.717Z,29.90
2017-09-05T12:48:28.248Z,30.10
2017-09-05T12:50:55.765Z,29.70
2017-09-05T12:53:23.293Z,29.70
2017-09-05T12:55:50.857Z,29.50
2017-09-05T12:58:18.382Z,29.40
2017-09-05T13:00:46.845Z,28.20
2017-09-05T13:03:14.645Z,28.30
2017-09-05T13:05:42.889Z,28.80
2017-09-05T13:08:10.408Z,29.00
2017-09-05T13:10:37.919Z,29.00
2017-09-05T13:13:05.429Z,29.30
2017-09-05T13:15:34.640Z,29.00
2017-09-05T13:18:02.580Z,29.00
2017-09-05T13:20:30.175Z,28.80
2017-09-05T13:22:59.689Z,28.40
2017-09-05T13:25:27.206Z,28.40
2017-09-05T13:27:54.727Z,28.10
2017-09-05T13:30:23.049Z,27.80
2017-09-05T13:32:51.343Z,27.00
2017-09-05T13:35:18.851Z,26.90
2017-09-05T13:37:46.872Z,26.80
2017-09-05T13:40:14.401Z,26.80
2017-09-05T13:42:42.465Z,26.50
2017-09-05T13:45:10.035Z,25.80
2017-09-05T13:47:37.544Z,25.50
2017-09-05T13:50:05.080Z,25.50
2017-09-05T13:52:32.604Z,25.40
2017-09-05T13:55:00.150Z,25.50
2017-09-05T13:57:28.446Z,25.60
2017-09-05T13:59:56.136Z,25.70
2017-09-05T14:02:23.641Z,25.70
2017-09-05T14:04:51.159Z,25.70
2017-09-05T14:07:19.436Z,25.80
2017-09-05T14:09:46.960Z,25.70
2017-09-05T14:12:15.409Z,25.90
2017-09-05T14:14:42.929Z,25.90
2017-09-05T14:17:11.378Z,25.70
2017-09-05T14:19:39.824Z,25.70
2017-09-05T14:22:07.345Z,25.70
2017-09-05T14:24:35.692Z,25.60
2017-09-05T14:27:03.861Z,25.60
2017-09-05T14:29:31.593Z,25.70
2017-09-05T14:31:59.172Z,25.70
2017-09-05T14:34:26.717Z,25.70
2017-09-05T14:36:54.247Z,25.70
2017-09-05T14:39:21.766Z,25.60
2017-09-05T14:41:49.271Z,25.40
2017-09-05T14:44:17.478Z,25.20
2017-09-05T14:46:45.016Z,24.90
2017-09-05T14:49:14.504Z,24.90
2017-09-05T14:51:42.092Z,24.90
2017-09-05T14:54:09.602Z,24.90
2017-09-05T14:56:37.111Z,24.80
2017-09-05T14:59:05.452Z,25.10
2017-09-05T15:01:32.960Z,25.00
2017-09-05T15:04:00.492Z,25.20
2017-09-05T15:06:28.020Z,25.00
2017-09-05T15:08:56.450Z,24.50
2017-09-05T15:11:23.955Z,24.60
2017-09-05T15:13:51.520Z,24.40
2017-09-05T15:16:19.039Z,23.80
2017-09-05T15:18:46.825Z,24.00
2017-09-05T15:21:15.307Z,24.20
2017-09-05T15:23:42.882Z,24.20
2017-09-05T15:26:10.390Z,23.80
2017-09-05T15:28:37.940Z,23.80
2017-09-05T15:31:07.141Z,24.00
2017-09-05T15:33:34.873Z,23.90
2017-09-05T15:36:02.447Z,23.90
2017-09-05T15:38:30.032Z,24.00
2017-09-05T15:40:57.547Z,24.10
2017-09-05T15:43:25.260Z,24.30
2017-09-05T15:45:54.469Z,24.30
2017-09-05T15:48:21.991Z,24.30
2017-09-05T15:50:49.495Z,24.30
2017-09-05T15:53:18.943Z,24.00
2017-09-05T15:55:47.403Z,24.00
2017-09-05T15:58:14.939Z,24.00
2017-09-05T16:00:43.047Z,23.90
2017-09-05T16:03:10.563Z,23.80
2017-09-05T16:05:38.067Z,23.40
2017-09-05T16:08:05.579Z,23.20
2017-09-05T16:10:33.083Z,23.10
2017-09-05T16:13:00.587Z,23.10
2017-09-05T16:15:28.264Z,23.10
2017-09-05T16:17:57.462Z,22.80
2017-09-05T16:20:25.041Z,22.80
2017-09-05T16:22:52.661Z,22.90
2017-09-05T16:25:20.177Z,22.60
2017-09-05T16:27:47.721Z,22.40
2017-09-05T16:30:16.040Z,22.30
2017-09-05T16:32:43.539Z,22.30
2017-09-05T16:35:11.744Z,22.20
2017-09-05T16:37:39.293Z,22.20
2017-09-05T16:40:07.780Z,22.10
2017-09-05T16:42:35.560Z,22.00
2017-09-05T16:45:03.330Z,21.90
2017-09-05T16:47:31.000Z,21.90
2017-09-05T16:49:58.799Z,21.90
2017-09-05T16:52:26.324Z,21.80
2017-09-05T16:54:54.244Z,21.80
2017-09-05T16:57:21.963Z,21.80
2017-09-05T16:59:49.470Z,21.80
2017-09-05T17:02:17.048Z,21.90
2017-09-05T17:04:44.600Z,21.80
2017-09-05T17:07:12.791Z,21.70
2017-09-05T17:09:40.382Z,21.70
2017-09-05T17:12:08.141Z,21.60
2017-09-05T17:14:35.712Z,21.60
2017-09-05T17:17:03.285Z,21.60
2017-09-05T17:19:32.454Z,21.50
2017-09-05T17:22:00.151Z,21.50
2017-09-05T17:24:28.321Z,21.40
2017-09-05T17:26:55.896Z,21.30
2017-09-05T17:29:23.508Z,21.20
2017-09-05T17:31:51.669Z,21.10
2017-09-05T17:34:19.438Z,21.00
2017-09-05T17:36:49.250Z,20.90
2017-09-05T17:39:16.862Z,20.90
2017-09-05T17:41:44.571Z,20.80
2017-09-05T17:44:12.276Z,20.70
2017-09-05T17:46:39.909Z,20.50
2017-09-05T17:49:07.659Z,20.50
2017-09-05T17:51:35.531Z,20.40
2017-09-05T17:54:03.176Z,20.40
2017-09-05T17:56:30.690Z,20.40
2017-09-05T17:58:58.407Z,20.40
2017-09-05T18:01:26.170Z,20.40
2017-09-05T18:03:55.506Z,20.40
2017-09-05T18:06:27.732Z,20.40
2017-09-05T18:08:55.316Z,20.40
2017-09-05T18:11:23.216Z,20.40
2017-09-05T18:13:50.789Z,20.50
2017-09-05T18:16:18.489Z,20.40
2017-09-05T18:18:46.028Z,20.40
2017-09-05T18:21:15.176Z,20.40
2017-09-05T18:23:42.911Z,20.40
2017-09-05T18:26:11.408Z,20.40
2017-09-05T18:28:40.102Z,20.40
2017-09-05T18:31:07.718Z,20.40
2017-09-05T18:33:35.288Z,20.30
2017-09-05T18:36:07.274Z,20.30
2017-09-05T18:38:35.643Z,20.10
2017-09-05T18:41:04.985Z,20.10
2017-09-05T18:43:32.562Z,20.10
2017-09-05T18:46:00.145Z,20.10
2017-09-05T18:48:27.850Z,20.10
2017-09-05T18:50:58.006Z,20.10
2017-09-05T18:53:26.804Z,20.10
2017-09-05T18:55:55.301Z,20.20
2017-09-05T18:58:22.847Z,20.20
2017-09-05T19:00:50.363Z,20.10
2017-09-05T19:03:19.431Z,20.20
2017-09-05T19:05:47.002Z,20.10
2017-09-05T19:08:15.356Z,20.10
2017-09-05T19:10:43.218Z,20.10
2017-09-05T19:13:10.782Z,20.10
2017-09-05T19:15:38.499Z,20.10
2017-09-05T19:18:06.207Z,20.00
2017-09-05T19:20:33.773Z,19.80
2017-09-05T19:23:01.488Z,19.70
2017-09-05T19:25:29.052Z,19.70
2017-09-05T19:27:57.060Z,19.70
2017-09-05T19:30:24.748Z,19.70
2017-09-05T19:32:52.489Z,19.70
2017-09-05T19:35:21.065Z,19.70
2017-09-05T19:37:48.615Z,19.70
2017-09-05T19:40:16.307Z,19.70
2017-09-05T19:42:44.009Z,19.70
2017-09-05T19:45:11.751Z,19.60
2017-09-05T19:47:39.455Z,19.60
2017-09-05T19:50:07.063Z,19.60
2017-09-05T19:52:35.536Z,19.60
2017-09-05T19:55:03.131Z,19.50
2017-09-05T19:57:31.523Z,19.50
2017-09-05T19:59:59.937Z,19.50
2017-09-05T20:02:27.600Z,19.50
2017-09-05T20:04:55.333Z,19.50
2017-09-05T20:07:23.782Z,19.40
2017-09-05T20:09:51.572Z,19.30
2017-09-05T20:12:19.866Z,19.30
2017-09-05T20:14:47.417Z,19.30
2017-09-05T20:17:15.093Z,19.30
2017-09-05T20:19:44.328Z,19.20
2017-09-05T20:22:11.896Z,19.20
2017-09-05T20:24:39.558Z,19.20
2017-09-05T20:27:07.123Z,19.20
2017-09-05T20:29:34.800Z,19.10
2017-09-05T20:32:02.712Z,19.00
2017-09-05T20:34:30.476Z,19.00
2017-09-05T20:36:58.210Z,18.90
2017-09-05T20:39:25.784Z,18.90
2017-09-05T20:41:57.013Z,18.90
2017-09-05T20:44:25.507Z,18.80
2017-09-05T20:46:53.790Z,18.70
2017-09-05T20:49:21.370Z,18.70
2017-09-05T20:51:48.943Z,18.60
2017-09-05T20:54:17.074Z,18.50
2017-09-05T20:56:46.063Z,18.60
2017-09-05T20:59:14.416Z,18.60
2017-09-05T21:01:41.936Z,18.50
2017-09-05T21:04:09.522Z,18.50
2017-09-05T21:06:37.660Z,18.50
2017-09-05T21:09:05.168Z,18.40
2017-09-05T21:11:35.907Z,18.40
2017-09-05T21:14:03.483Z,18.40
2017-09-05T21:16:31.040Z,18.40
2017-09-05T21:18:58.684Z,18.50
2017-09-05T21:21:26.946Z,18.50
2017-09-05T21:23:54.479Z,18.40
2017-09-05T21:26:26.563Z,18.50
2017-09-05T21:28:54.159Z,18.50
2017-09-05T21:31:21.697Z,18.50
2017-09-05T21:33:49.336Z,18.50
2017-09-05T21:36:16.948Z,18.60
2017-09-05T21:38:48.390Z,18.60
2017-09-05T21:41:15.961Z,18.60
2017-09-05T21:43:43.474Z,18.70
2017-09-05T21:46:11.034Z,18.70
2017-09-05T21:48:38.611Z,18.70
2017-09-05T21:51:06.224Z,18.70
2017-09-05T21:53:35.165Z,18.60
2017-09-05T21:56:02.676Z,18.70
2017-09-05T21:58:31.168Z,18.70
2017-09-05T22:00:58.855Z,18.70
2017-09-05T22:03:27.063Z,18.70
2017-09-05T22:05:55.419Z,18.70
2017-09-05T22:08:23.871Z,18.70
2017-09-05T22:10:51.828Z,18.70
2017-09-05T22:13:19.346Z,18.70
2017-09-05T22:15:46.851Z,18.70
2017-09-05T22:18:20.824Z,18.70
2017-09-05T22:20:55.211Z,18.70
2017-09-05T22:23:22.723Z,18.70
2017-09-05T22:25:55.780Z,18.70
2017-09-05T22:28:28.874Z,18.60
2017-09-05T22:30:56.379Z,18.60
2017-09-05T22:33:23.895Z,18.60
2017-09-05T22:35:51.430Z,18.60
2017-09-05T22:38:18.935Z,18.60
2017-09-05T22:40:46.443Z,18.60
2017-09-05T22:43:13.960Z,18.50
2017-09-05T22:45:41.475Z,18.50
2017-09-05T22:48:09.803Z,18.50
2017-09-05T22:50:37.323Z,18.50
2017-09-05T22:53:04.848Z,18.40
2017-09-05T22:55:32.402Z,18.50
2017-09-05T22:57:59.952Z,18.40
2017-09-05T23:00:27.464Z,18.50
2017-09-05T23:02:55.009Z,18.40
2017-09-05T23:05:23.195Z,18.40
2017-09-05T23:07:50.745Z,18.40
2017-09-05T23:10:18.264Z,18.40
2017-09-05T23:12:45.774Z,18.40
2017-09-05T23:15:13.332Z,18.50
2017-09-05T23:17:40.847Z,18.50
2017-09-05T23:20:08.383Z,18.50
2017-09-05T23:22:35.908Z,18.50
2017-09-05T23:25:03.495Z,18.60
2017-09-05T23:27:31.675Z,18.60
2017-09-05T23:29:59.220Z,18.60
2017-09-05T23:32:26.724Z,18.60
2017-09-05T23:34:54.309Z,18.60
2017-09-05T23:37:22.067Z,18.70
2017-09-05T23:39:50.508Z,18.70
2017-09-05T23:42:18.021Z,18.70
2017-09-05T23:44:45.554Z,18.60
2017-09-05T23:47:13.818Z,18.50
2017-09-05T23:49:42.143Z,18.50
2017-09-05T23:52:09.673Z,18.50
2017-09-05T23:54:37.986Z,18.60
2017-09-05T23:57:05.506Z,18.50
2017-09-05T23:59:34.730Z,18.50
